sensor_id;sensor_type;location;lat;lon;timestamp;P1;durP1;ratioP1;P2;durP2;ratioP2
6531;SDS011;3299;42.004;24.868;2023-03-14T00:00:11;2.80;;;2.30;;
6531;SDS011;3299;42.004;24.868;2023-03-14T00:02:39;2.45;;;2.33;;
6531;SDS011;3299;42.004;24.868;2023-03-14T00:05:04;2.92;;;2.63;;
6531;SDS011;3299;42.004;24.868;2023-03-14T00:07:34;3.28;;;2.33;;
6531;SDS011;3299;42.004;24.868;2023-03-14T00:10:10;3.05;;;2.67;;
6531;SDS011;3299;42.004;24.868;2023-03-14T00:12:40;2.78;;;2.58;;
6531;SDS011;3299;42.004;24.868;2023-03-14T00:15:07;3.22;;;2.35;;
6531;SDS011;3299;42.004;24.868;2023-03-14T00:17:34;3.10;;;2.90;;
6531;SDS011;3299;42.004;24.868;2023-03-14T00:20:00;3.33;;;2.70;;
6531;SDS011;3299;42.004;24.868;2023-03-14T00:22:32;3.92;;;2.72;;
6531;SDS011;3299;42.004;24.868;2023-03-14T00:25:01;3.13;;;2.83;;
6531;SDS011;3299;42.004;24.868;2023-03-14T00:27:27;3.70;;;2.88;;
6531;SDS011;3299;42.004;24.868;2023-03-14T00:29:52;2.83;;;2.45;;
6531;SDS011;3299;42.004;24.868;2023-03-14T00:32:18;2.67;;;2.42;;
6531;SDS011;3299;42.004;24.868;2023-03-14T00:34:43;2.95;;;2.45;;
6531;SDS011;3299;42.004;24.868;2023-03-14T00:37:09;4.05;;;2.38;;
6531;SDS011;3299;42.004;24.868;2023-03-14T00:39:34;6.13;;;2.75;;
6531;SDS011;3299;42.004;24.868;2023-03-14T00:41:59;3.55;;;2.67;;
6531;SDS011;3299;42.004;24.868;2023-03-14T00:44:25;2.45;;;2.28;;
6531;SDS011;3299;42.004;24.868;2023-03-14T00:46:50;3.67;;;2.72;;
6531;SDS011;3299;42.004;24.868;2023-03-14T00:49:16;3.92;;;2.33;;
6531;SDS011;3299;42.004;24.868;2023-03-14T00:51:41;2.50;;;2.40;;
6531;SDS011;3299;42.004;24.868;2023-03-14T00:54:06;2.60;;;2.40;;
6531;SDS011;3299;42.004;24.868;2023-03-14T00:56:32;2.60;;;2.40;;
6531;SDS011;3299;42.004;24.868;2023-03-14T00:58:57;2.47;;;2.38;;
6531;SDS011;3299;42.004;24.868;2023-03-14T01:01:23;2.78;;;2.30;;
6531;SDS011;3299;42.004;24.868;2023-03-14T01:03:53;3.25;;;2.30;;
6531;SDS011;3299;42.004;24.868;2023-03-14T01:06:21;4.13;;;2.30;;
6531;SDS011;3299;42.004;24.868;2023-03-14T01:08:51;2.53;;;2.33;;
6531;SDS011;3299;42.004;24.868;2023-03-14T01:11:18;3.78;;;2.33;;
6531;SDS011;3299;42.004;24.868;2023-03-14T01:13:49;2.45;;;2.25;;
6531;SDS011;3299;42.004;24.868;2023-03-14T01:16:15;2.33;;;2.22;;
6531;SDS011;3299;42.004;24.868;2023-03-14T01:18:42;2.67;;;2.42;;
6531;SDS011;3299;42.004;24.868;2023-03-14T01:21:19;2.75;;;2.30;;
6531;SDS011;3299;42.004;24.868;2023-03-14T01:23:47;2.63;;;2.42;;
6531;SDS011;3299;42.004;24.868;2023-03-14T01:26:14;3.45;;;2.35;;
6531;SDS011;3299;42.004;24.868;2023-03-14T01:28:43;3.40;;;2.45;;
6531;SDS011;3299;42.004;24.868;2023-03-14T01:31:09;2.13;;;2.03;;
6531;SDS011;3299;42.004;24.868;2023-03-14T01:33:36;3.05;;;2.58;;
6531;SDS011;3299;42.004;24.868;2023-03-14T01:36:02;2.60;;;2.40;;
6531;SDS011;3299;42.004;24.868;2023-03-14T01:38:28;2.35;;;2.25;;
6531;SDS011;3299;42.004;24.868;2023-03-14T01:40:54;2.90;;;2.70;;
6531;SDS011;3299;42.004;24.868;2023-03-14T01:43:20;4.28;;;2.20;;
6531;SDS011;3299;42.004;24.868;2023-03-14T01:46:02;2.15;;;1.95;;
6531;SDS011;3299;42.004;24.868;2023-03-14T01:51:56;2.50;;;2.30;;
6531;SDS011;3299;42.004;24.868;2023-03-14T01:54:05;2.60;;;2.33;;
6531;SDS011;3299;42.004;24.868;2023-03-14T01:56:35;2.22;;;2.03;;
6531;SDS011;3299;42.004;24.868;2023-03-14T01:59:03;3.53;;;2.60;;
6531;SDS011;3299;42.004;24.868;2023-03-14T02:01:31;2.15;;;2.05;;
6531;SDS011;3299;42.004;24.868;2023-03-14T02:03:57;2.88;;;2.38;;
6531;SDS011;3299;42.004;24.868;2023-03-14T02:06:27;6.00;;;2.13;;
6531;SDS011;3299;42.004;24.868;2023-03-14T02:08:59;2.55;;;2.35;;
6531;SDS011;3299;42.004;24.868;2023-03-14T02:11:26;3.13;;;2.50;;
6531;SDS011;3299;42.004;24.868;2023-03-14T02:13:54;2.72;;;2.53;;
6531;SDS011;3299;42.004;24.868;2023-03-14T02:16:22;3.15;;;2.85;;
6531;SDS011;3299;42.004;24.868;2023-03-14T02:18:48;3.15;;;2.40;;
6531;SDS011;3299;42.004;24.868;2023-03-14T02:27:18;2.70;;;2.50;;
6531;SDS011;3299;42.004;24.868;2023-03-14T02:29:52;2.55;;;2.35;;
6531;SDS011;3299;42.004;24.868;2023-03-14T02:32:22;3.72;;;2.92;;
6531;SDS011;3299;42.004;24.868;2023-03-14T02:34:51;3.92;;;2.45;;
6531;SDS011;3299;42.004;24.868;2023-03-14T02:37:20;2.63;;;2.40;;
6531;SDS011;3299;42.004;24.868;2023-03-14T02:39:48;2.67;;;2.47;;
6531;SDS011;3299;42.004;24.868;2023-03-14T02:42:16;2.63;;;2.42;;
6531;SDS011;3299;42.004;24.868;2023-03-14T02:44:55;3.05;;;2.60;;
6531;SDS011;3299;42.004;24.868;2023-03-14T02:47:44;2.92;;;2.70;;
6531;SDS011;3299;42.004;24.868;2023-03-14T02:50:15;3.25;;;2.95;;
6531;SDS011;3299;42.004;24.868;2023-03-14T02:52:43;3.08;;;2.78;;
6531;SDS011;3299;42.004;24.868;2023-03-14T02:55:09;2.85;;;2.60;;
6531;SDS011;3299;42.004;24.868;2023-03-14T02:57:34;2.72;;;2.53;;
6531;SDS011;3299;42.004;24.868;2023-03-14T03:00:00;3.60;;;2.70;;
6531;SDS011;3299;42.004;24.868;2023-03-14T03:02:29;3.05;;;2.75;;
6531;SDS011;3299;42.004;24.868;2023-03-14T03:04:54;2.88;;;2.67;;
6531;SDS011;3299;42.004;24.868;2023-03-14T03:07:20;3.85;;;2.92;;
6531;SDS011;3299;42.004;24.868;2023-03-14T03:09:45;4.30;;;3.30;;
6531;SDS011;3299;42.004;24.868;2023-03-14T03:12:11;2.92;;;2.72;;
6531;SDS011;3299;42.004;24.868;2023-03-14T03:14:36;2.78;;;2.55;;
6531;SDS011;3299;42.004;24.868;2023-03-14T03:17:03;2.97;;;2.75;;
6531;SDS011;3299;42.004;24.868;2023-03-14T03:19:30;4.35;;;2.53;;
6531;SDS011;3299;42.004;24.868;2023-03-14T03:21:56;3.22;;;2.83;;
6531;SDS011;3299;42.004;24.868;2023-03-14T03:24:22;3.55;;;3.25;;
6531;SDS011;3299;42.004;24.868;2023-03-14T03:26:48;3.28;;;3.08;;
6531;SDS011;3299;42.004;24.868;2023-03-14T03:29:13;3.40;;;3.10;;
6531;SDS011;3299;42.004;24.868;2023-03-14T03:31:38;2.80;;;2.60;;
6531;SDS011;3299;42.004;24.868;2023-03-14T03:34:04;5.28;;;3.17;;
6531;SDS011;3299;42.004;24.868;2023-03-14T03:36:29;4.43;;;2.72;;
6531;SDS011;3299;42.004;24.868;2023-03-14T03:38:56;3.58;;;2.72;;
6531;SDS011;3299;42.004;24.868;2023-03-14T03:41:21;3.03;;;2.70;;
6531;SDS011;3299;42.004;24.868;2023-03-14T03:43:46;3.28;;;2.63;;
6531;SDS011;3299;42.004;24.868;2023-03-14T03:46:12;3.00;;;2.80;;
6531;SDS011;3299;42.004;24.868;2023-03-14T03:48:37;2.97;;;2.75;;
6531;SDS011;3299;42.004;24.868;2023-03-14T03:51:03;3.10;;;2.90;;
6531;SDS011;3299;42.004;24.868;2023-03-14T03:53:29;3.30;;;3.00;;
6531;SDS011;3299;42.004;24.868;2023-03-14T03:55:54;3.15;;;2.75;;
6531;SDS011;3299;42.004;24.868;2023-03-14T03:58:22;3.42;;;2.80;;
6531;SDS011;3299;42.004;24.868;2023-03-14T04:00:48;3.03;;;2.75;;
6531;SDS011;3299;42.004;24.868;2023-03-14T04:03:13;4.63;;;2.88;;
6531;SDS011;3299;42.004;24.868;2023-03-14T04:05:39;3.58;;;3.28;;
6531;SDS011;3299;42.004;24.868;2023-03-14T04:08:04;4.47;;;3.35;;
6531;SDS011;3299;42.004;24.868;2023-03-14T04:10:30;2.97;;;2.78;;
6531;SDS011;3299;42.004;24.868;2023-03-14T04:12:59;3.97;;;3.50;;
6531;SDS011;3299;42.004;24.868;2023-03-14T04:15:25;3.75;;;3.30;;
6531;SDS011;3299;42.004;24.868;2023-03-14T04:17:50;3.33;;;3.03;;
6531;SDS011;3299;42.004;24.868;2023-03-14T04:20:15;3.53;;;3.22;;
6531;SDS011;3299;42.004;24.868;2023-03-14T04:22:41;2.45;;;2.30;;
6531;SDS011;3299;42.004;24.868;2023-03-14T04:25:06;3.58;;;2.90;;
6531;SDS011;3299;42.004;24.868;2023-03-14T04:27:32;3.78;;;2.90;;
6531;SDS011;3299;42.004;24.868;2023-03-14T04:29:58;2.95;;;2.75;;
6531;SDS011;3299;42.004;24.868;2023-03-14T04:32:23;3.05;;;2.75;;
6531;SDS011;3299;42.004;24.868;2023-03-14T04:34:50;3.17;;;2.95;;
6531;SDS011;3299;42.004;24.868;2023-03-14T04:37:16;2.45;;;2.25;;
6531;SDS011;3299;42.004;24.868;2023-03-14T04:39:41;2.92;;;2.72;;
6531;SDS011;3299;42.004;24.868;2023-03-14T04:42:07;2.63;;;2.30;;
6531;SDS011;3299;42.004;24.868;2023-03-14T04:44:32;2.42;;;2.22;;
6531;SDS011;3299;42.004;24.868;2023-03-14T04:46:57;2.75;;;2.55;;
6531;SDS011;3299;42.004;24.868;2023-03-14T04:49:23;2.30;;;2.13;;
6531;SDS011;3299;42.004;24.868;2023-03-14T04:51:48;2.63;;;2.42;;
6531;SDS011;3299;42.004;24.868;2023-03-14T04:54:16;2.75;;;2.58;;
6531;SDS011;3299;42.004;24.868;2023-03-14T04:56:42;4.72;;;3.53;;
6531;SDS011;3299;42.004;24.868;2023-03-14T04:59:07;3.38;;;3.05;;
6531;SDS011;3299;42.004;24.868;2023-03-14T05:01:33;5.43;;;4.93;;
6531;SDS011;3299;42.004;24.868;2023-03-14T05:03:58;5.05;;;3.90;;
6531;SDS011;3299;42.004;24.868;2023-03-14T05:06:24;5.25;;;4.15;;
6531;SDS011;3299;42.004;24.868;2023-03-14T05:08:49;7.53;;;5.90;;
6531;SDS011;3299;42.004;24.868;2023-03-14T05:11:15;8.25;;;5.43;;
6531;SDS011;3299;42.004;24.868;2023-03-14T05:13:40;10.05;;;6.88;;
6531;SDS011;3299;42.004;24.868;2023-03-14T05:16:06;9.75;;;7.18;;
6531;SDS011;3299;42.004;24.868;2023-03-14T05:18:33;6.75;;;5.25;;
6531;SDS011;3299;42.004;24.868;2023-03-14T05:20:59;4.80;;;4.00;;
6531;SDS011;3299;42.004;24.868;2023-03-14T05:23:24;6.13;;;4.47;;
6531;SDS011;3299;42.004;24.868;2023-03-14T05:25:50;3.97;;;3.58;;
6531;SDS011;3299;42.004;24.868;2023-03-14T05:28:15;6.20;;;3.40;;
6531;SDS011;3299;42.004;24.868;2023-03-14T05:30:41;4.70;;;3.95;;
6531;SDS011;3299;42.004;24.868;2023-03-14T05:33:06;7.75;;;4.75;;
6531;SDS011;3299;42.004;24.868;2023-03-14T05:35:32;11.77;;;7.22;;
6531;SDS011;3299;42.004;24.868;2023-03-14T05:37:57;11.02;;;7.60;;
6531;SDS011;3299;42.004;24.868;2023-03-14T05:40:22;13.30;;;8.63;;
6531;SDS011;3299;42.004;24.868;2023-03-14T05:42:48;13.77;;;7.57;;
6531;SDS011;3299;42.004;24.868;2023-03-14T05:45:13;12.18;;;7.20;;
6531;SDS011;3299;42.004;24.868;2023-03-14T05:47:39;10.35;;;6.95;;
6531;SDS011;3299;42.004;24.868;2023-03-14T05:50:04;16.88;;;9.00;;
6531;SDS011;3299;42.004;24.868;2023-03-14T05:52:30;12.63;;;9.38;;
6531;SDS011;3299;42.004;24.868;2023-03-14T05:54:55;16.40;;;9.15;;
6531;SDS011;3299;42.004;24.868;2023-03-14T05:57:20;12.48;;;9.13;;
6531;SDS011;3299;42.004;24.868;2023-03-14T05:59:46;12.07;;;8.30;;
6531;SDS011;3299;42.004;24.868;2023-03-14T06:02:11;13.35;;;8.95;;
6531;SDS011;3299;42.004;24.868;2023-03-14T06:04:37;11.85;;;7.97;;
6531;SDS011;3299;42.004;24.868;2023-03-14T06:07:02;13.98;;;7.88;;
6531;SDS011;3299;42.004;24.868;2023-03-14T06:09:29;13.25;;;8.63;;
6531;SDS011;3299;42.004;24.868;2023-03-14T06:11:54;13.32;;;8.90;;
6531;SDS011;3299;42.004;24.868;2023-03-14T06:14:20;11.30;;;7.90;;
6531;SDS011;3299;42.004;24.868;2023-03-14T06:16:45;23.95;;;8.88;;
6531;SDS011;3299;42.004;24.868;2023-03-14T06:19:12;12.63;;;8.60;;
6531;SDS011;3299;42.004;24.868;2023-03-14T06:21:38;11.00;;;7.50;;
6531;SDS011;3299;42.004;24.868;2023-03-14T06:24:03;11.13;;;8.20;;
6531;SDS011;3299;42.004;24.868;2023-03-14T06:26:29;15.52;;;8.27;;
6531;SDS011;3299;42.004;24.868;2023-03-14T06:28:54;11.18;;;8.50;;
6531;SDS011;3299;42.004;24.868;2023-03-14T06:31:20;12.65;;;9.20;;
6531;SDS011;3299;42.004;24.868;2023-03-14T06:33:45;14.73;;;9.23;;
6531;SDS011;3299;42.004;24.868;2023-03-14T06:36:10;13.95;;;9.02;;
6531;SDS011;3299;42.004;24.868;2023-03-14T06:38:36;11.88;;;9.63;;
6531;SDS011;3299;42.004;24.868;2023-03-14T06:41:05;14.70;;;9.05;;
6531;SDS011;3299;42.004;24.868;2023-03-14T06:43:31;12.10;;;9.43;;
6531;SDS011;3299;42.004;24.868;2023-03-14T06:45:57;13.10;;;8.95;;
6531;SDS011;3299;42.004;24.868;2023-03-14T06:48:22;12.25;;;8.45;;
6531;SDS011;3299;42.004;24.868;2023-03-14T06:50:48;13.02;;;8.07;;
6531;SDS011;3299;42.004;24.868;2023-03-14T06:53:17;13.35;;;8.82;;
6531;SDS011;3299;42.004;24.868;2023-03-14T06:55:42;12.10;;;8.75;;
6531;SDS011;3299;42.004;24.868;2023-03-14T06:58:08;15.20;;;9.15;;
6531;SDS011;3299;42.004;24.868;2023-03-14T07:00:34;12.55;;;9.18;;
6531;SDS011;3299;42.004;24.868;2023-03-14T07:03:00;14.23;;;9.95;;
6531;SDS011;3299;42.004;24.868;2023-03-14T07:05:26;18.65;;;10.50;;
6531;SDS011;3299;42.004;24.868;2023-03-14T07:07:51;18.30;;;11.02;;
6531;SDS011;3299;42.004;24.868;2023-03-14T07:10:17;19.20;;;9.63;;
6531;SDS011;3299;42.004;24.868;2023-03-14T07:12:45;12.68;;;8.40;;
6531;SDS011;3299;42.004;24.868;2023-03-14T07:15:10;11.18;;;8.18;;
6531;SDS011;3299;42.004;24.868;2023-03-14T07:17:36;14.40;;;7.90;;
6531;SDS011;3299;42.004;24.868;2023-03-14T07:20:01;11.57;;;7.38;;
6531;SDS011;3299;42.004;24.868;2023-03-14T07:22:29;11.93;;;7.70;;
6531;SDS011;3299;42.004;24.868;2023-03-14T07:24:55;15.88;;;7.80;;
6531;SDS011;3299;42.004;24.868;2023-03-14T07:27:21;10.35;;;7.97;;
6531;SDS011;3299;42.004;24.868;2023-03-14T07:29:46;8.65;;;7.13;;
6531;SDS011;3299;42.004;24.868;2023-03-14T07:32:12;15.43;;;7.68;;
6531;SDS011;3299;42.004;24.868;2023-03-14T07:34:40;14.57;;;7.60;;
6531;SDS011;3299;42.004;24.868;2023-03-14T07:37:08;16.75;;;8.68;;
6531;SDS011;3299;42.004;24.868;2023-03-14T07:39:34;12.88;;;8.15;;
6531;SDS011;3299;42.004;24.868;2023-03-14T07:42:00;13.68;;;7.30;;
6531;SDS011;3299;42.004;24.868;2023-03-14T07:44:25;13.38;;;7.47;;
6531;SDS011;3299;42.004;24.868;2023-03-14T07:46:51;13.05;;;8.40;;
6531;SDS011;3299;42.004;24.868;2023-03-14T07:49:17;9.15;;;7.47;;
6531;SDS011;3299;42.004;24.868;2023-03-14T07:51:42;13.75;;;8.20;;
6531;SDS011;3299;42.004;24.868;2023-03-14T07:54:09;11.27;;;7.82;;
6531;SDS011;3299;42.004;24.868;2023-03-14T07:56:35;19.92;;;7.55;;
6531;SDS011;3299;42.004;24.868;2023-03-14T07:59:01;12.63;;;7.68;;
6531;SDS011;3299;42.004;24.868;2023-03-14T08:01:26;10.13;;;7.07;;
6531;SDS011;3299;42.004;24.868;2023-03-14T08:03:52;11.45;;;7.22;;
6531;SDS011;3299;42.004;24.868;2023-03-14T08:06:17;11.68;;;7.00;;
6531;SDS011;3299;42.004;24.868;2023-03-14T08:08:42;11.43;;;6.93;;
6531;SDS011;3299;42.004;24.868;2023-03-14T08:11:08;10.05;;;7.20;;
6531;SDS011;3299;42.004;24.868;2023-03-14T08:13:33;11.85;;;7.28;;
6531;SDS011;3299;42.004;24.868;2023-03-14T08:16:00;22.10;;;12.80;;
6531;SDS011;3299;42.004;24.868;2023-03-14T08:18:25;11.65;;;7.18;;
6531;SDS011;3299;42.004;24.868;2023-03-14T08:20:51;9.40;;;6.30;;
6531;SDS011;3299;42.004;24.868;2023-03-14T08:23:16;9.93;;;5.47;;
6531;SDS011;3299;42.004;24.868;2023-03-14T08:25:42;10.43;;;5.60;;
6531;SDS011;3299;42.004;24.868;2023-03-14T08:28:08;12.65;;;7.15;;
6531;SDS011;3299;42.004;24.868;2023-03-14T08:30:33;13.07;;;7.00;;
6531;SDS011;3299;42.004;24.868;2023-03-14T08:32:59;11.95;;;6.70;;
6531;SDS011;3299;42.004;24.868;2023-03-14T08:35:24;6.50;;;5.05;;
6531;SDS011;3299;42.004;24.868;2023-03-14T08:37:50;5.95;;;4.63;;
6531;SDS011;3299;42.004;24.868;2023-03-14T08:40:17;11.98;;;4.70;;
6531;SDS011;3299;42.004;24.868;2023-03-14T08:42:43;9.43;;;5.00;;
6531;SDS011;3299;42.004;24.868;2023-03-14T08:45:10;11.52;;;4.45;;
6531;SDS011;3299;42.004;24.868;2023-03-14T08:47:37;6.32;;;4.15;;
6531;SDS011;3299;42.004;24.868;2023-03-14T08:50:03;6.03;;;4.50;;
6531;SDS011;3299;42.004;24.868;2023-03-14T08:52:30;6.70;;;4.00;;
6531;SDS011;3299;42.004;24.868;2023-03-14T08:54:56;6.05;;;4.00;;
6531;SDS011;3299;42.004;24.868;2023-03-14T08:57:21;4.93;;;4.20;;
6531;SDS011;3299;42.004;24.868;2023-03-14T08:59:52;8.02;;;4.10;;
6531;SDS011;3299;42.004;24.868;2023-03-14T09:02:18;5.93;;;3.78;;
6531;SDS011;3299;42.004;24.868;2023-03-14T09:04:43;7.68;;;4.63;;
6531;SDS011;3299;42.004;24.868;2023-03-14T09:07:08;5.05;;;4.22;;
6531;SDS011;3299;42.004;24.868;2023-03-14T09:09:34;6.75;;;4.43;;
6531;SDS011;3299;42.004;24.868;2023-03-14T09:11:59;9.45;;;5.18;;
6531;SDS011;3299;42.004;24.868;2023-03-14T09:14:25;5.35;;;4.20;;
6531;SDS011;3299;42.004;24.868;2023-03-14T09:16:50;6.15;;;4.28;;
6531;SDS011;3299;42.004;24.868;2023-03-14T09:19:15;11.57;;;7.47;;
6531;SDS011;3299;42.004;24.868;2023-03-14T09:21:43;11.02;;;5.63;;
6531;SDS011;3299;42.004;24.868;2023-03-14T09:24:09;7.40;;;4.65;;
6531;SDS011;3299;42.004;24.868;2023-03-14T09:26:34;10.18;;;5.43;;
6531;SDS011;3299;42.004;24.868;2023-03-14T09:28:59;10.63;;;5.20;;
6531;SDS011;3299;42.004;24.868;2023-03-14T09:31:25;8.52;;;5.35;;
6531;SDS011;3299;42.004;24.868;2023-03-14T09:33:50;12.85;;;6.90;;
6531;SDS011;3299;42.004;24.868;2023-03-14T09:36:16;8.68;;;5.80;;
6531;SDS011;3299;42.004;24.868;2023-03-14T09:38:41;7.38;;;6.10;;
6531;SDS011;3299;42.004;24.868;2023-03-14T09:41:14;6.78;;;4.57;;
6531;SDS011;3299;42.004;24.868;2023-03-14T09:43:44;8.90;;;4.68;;
6531;SDS011;3299;42.004;24.868;2023-03-14T09:46:11;7.82;;;5.90;;
6531;SDS011;3299;42.004;24.868;2023-03-14T09:48:37;5.55;;;4.85;;
6531;SDS011;3299;42.004;24.868;2023-03-14T09:51:05;5.22;;;4.72;;
6531;SDS011;3299;42.004;24.868;2023-03-14T09:53:39;7.30;;;4.90;;
6531;SDS011;3299;42.004;24.868;2023-03-14T09:56:14;5.75;;;4.55;;
6531;SDS011;3299;42.004;24.868;2023-03-14T09:58:44;9.63;;;5.60;;
6531;SDS011;3299;42.004;24.868;2023-03-14T10:01:15;5.93;;;5.32;;
6531;SDS011;3299;42.004;24.868;2023-03-14T10:03:45;5.90;;;4.63;;
6531;SDS011;3299;42.004;24.868;2023-03-14T10:06:13;6.63;;;5.03;;
6531;SDS011;3299;42.004;24.868;2023-03-14T10:08:42;4.90;;;4.20;;
6531;SDS011;3299;42.004;24.868;2023-03-14T10:11:17;5.88;;;4.70;;
6531;SDS011;3299;42.004;24.868;2023-03-14T10:13:48;5.80;;;4.05;;
6531;SDS011;3299;42.004;24.868;2023-03-14T10:16:34;5.50;;;4.70;;
6531;SDS011;3299;42.004;24.868;2023-03-14T10:19:11;6.88;;;4.60;;
6531;SDS011;3299;42.004;24.868;2023-03-14T10:21:44;7.22;;;4.50;;
6531;SDS011;3299;42.004;24.868;2023-03-14T10:24:18;8.50;;;4.63;;
6531;SDS011;3299;42.004;24.868;2023-03-14T10:26:57;4.70;;;4.30;;
6531;SDS011;3299;42.004;24.868;2023-03-14T10:29:28;6.55;;;4.88;;
6531;SDS011;3299;42.004;24.868;2023-03-14T10:32:02;6.35;;;4.38;;
6531;SDS011;3299;42.004;24.868;2023-03-14T10:37:05;9.13;;;6.80;;
6531;SDS011;3299;42.004;24.868;2023-03-14T10:39:37;5.88;;;4.70;;
6531;SDS011;3299;42.004;24.868;2023-03-14T10:42:28;5.20;;;4.75;;
6531;SDS011;3299;42.004;24.868;2023-03-14T10:45:00;6.05;;;4.50;;
6531;SDS011;3299;42.004;24.868;2023-03-14T10:47:32;6.20;;;4.65;;
6531;SDS011;3299;42.004;24.868;2023-03-14T10:50:18;4.82;;;4.40;;
6531;SDS011;3299;42.004;24.868;2023-03-14T10:52:48;4.90;;;4.20;;
6531;SDS011;3299;42.004;24.868;2023-03-14T10:55:14;4.75;;;4.25;;
6531;SDS011;3299;42.004;24.868;2023-03-14T10:57:40;7.05;;;4.70;;
6531;SDS011;3299;42.004;24.868;2023-03-14T11:00:09;7.00;;;4.80;;
6531;SDS011;3299;42.004;24.868;2023-03-14T11:08:29;5.38;;;4.75;;
6531;SDS011;3299;42.004;24.868;2023-03-14T11:11:07;4.90;;;4.30;;
6531;SDS011;3299;42.004;24.868;2023-03-14T11:25:06;6.50;;;4.63;;
6531;SDS011;3299;42.004;24.868;2023-03-14T11:35:55;21.98;;;10.95;;
6531;SDS011;3299;42.004;24.868;2023-03-14T11:38:30;17.50;;;8.35;;
6531;SDS011;3299;42.004;24.868;2023-03-14T11:41:02;5.40;;;4.90;;
6531;SDS011;3299;42.004;24.868;2023-03-14T11:43:34;5.28;;;4.35;;
6531;SDS011;3299;42.004;24.868;2023-03-14T11:48:45;7.13;;;4.45;;
6531;SDS011;3299;42.004;24.868;2023-03-14T11:51:35;5.20;;;4.57;;
6531;SDS011;3299;42.004;24.868;2023-03-14T11:54:12;4.45;;;4.00;;
6531;SDS011;3299;42.004;24.868;2023-03-14T11:56:58;5.15;;;4.35;;
6531;SDS011;3299;42.004;24.868;2023-03-14T12:05:14;5.07;;;3.95;;
6531;SDS011;3299;42.004;24.868;2023-03-14T12:10:50;7.00;;;5.35;;
6531;SDS011;3299;42.004;24.868;2023-03-14T12:13:19;6.72;;;5.25;;
6531;SDS011;3299;42.004;24.868;2023-03-14T12:15:58;5.63;;;4.07;;
6531;SDS011;3299;42.004;24.868;2023-03-14T12:18:33;4.53;;;3.88;;
6531;SDS011;3299;42.004;24.868;2023-03-14T12:21:03;4.85;;;4.00;;
6531;SDS011;3299;42.004;24.868;2023-03-14T12:23:50;4.63;;;4.18;;
6531;SDS011;3299;42.004;24.868;2023-03-14T12:39:35;4.00;;;3.65;;
6531;SDS011;3299;42.004;24.868;2023-03-14T12:45:42;3.63;;;3.33;;
6531;SDS011;3299;42.004;24.868;2023-03-14T12:50:54;4.60;;;3.00;;
6531;SDS011;3299;42.004;24.868;2023-03-14T12:58:40;5.63;;;3.13;;
6531;SDS011;3299;42.004;24.868;2023-03-14T13:01:16;4.13;;;2.92;;
6531;SDS011;3299;42.004;24.868;2023-03-14T13:03:47;6.22;;;3.53;;
6531;SDS011;3299;42.004;24.868;2023-03-14T13:09:34;3.17;;;2.97;;
6531;SDS011;3299;42.004;24.868;2023-03-14T13:12:10;3.67;;;3.30;;
6531;SDS011;3299;42.004;24.868;2023-03-14T13:14:41;4.28;;;3.83;;
6531;SDS011;3299;42.004;24.868;2023-03-14T13:17:13;7.47;;;3.38;;
6531;SDS011;3299;42.004;24.868;2023-03-14T13:19:39;9.02;;;3.42;;
6531;SDS011;3299;42.004;24.868;2023-03-14T13:22:12;5.10;;;3.55;;
6531;SDS011;3299;42.004;24.868;2023-03-14T13:24:44;4.35;;;3.95;;
6531;SDS011;3299;42.004;24.868;2023-03-14T13:27:17;3.67;;;3.38;;
6531;SDS011;3299;42.004;24.868;2023-03-14T13:29:45;3.90;;;3.42;;
6531;SDS011;3299;42.004;24.868;2023-03-14T13:32:20;6.43;;;3.80;;
6531;SDS011;3299;42.004;24.868;2023-03-14T13:34:50;5.03;;;3.50;;
6531;SDS011;3299;42.004;24.868;2023-03-14T13:37:16;5.50;;;3.20;;
6531;SDS011;3299;42.004;24.868;2023-03-14T13:39:49;4.10;;;3.70;;
6531;SDS011;3299;42.004;24.868;2023-03-14T13:42:16;4.80;;;3.85;;
6531;SDS011;3299;42.004;24.868;2023-03-14T13:44:42;4.28;;;3.63;;
6531;SDS011;3299;42.004;24.868;2023-03-14T13:47:13;3.90;;;3.60;;
6531;SDS011;3299;42.004;24.868;2023-03-14T13:49:41;4.90;;;3.42;;
6531;SDS011;3299;42.004;24.868;2023-03-14T13:55:16;5.00;;;3.60;;
6531;SDS011;3299;42.004;24.868;2023-03-14T13:57:46;8.07;;;3.60;;
6531;SDS011;3299;42.004;24.868;2023-03-14T14:00:26;5.75;;;4.20;;
6531;SDS011;3299;42.004;24.868;2023-03-14T14:02:53;4.35;;;3.95;;
6531;SDS011;3299;42.004;24.868;2023-03-14T14:05:20;6.10;;;4.25;;
6531;SDS011;3299;42.004;24.868;2023-03-14T14:07:46;7.30;;;4.55;;
6531;SDS011;3299;42.004;24.868;2023-03-14T14:10:14;5.03;;;4.50;;
6531;SDS011;3299;42.004;24.868;2023-03-14T14:12:45;8.35;;;4.57;;
6531;SDS011;3299;42.004;24.868;2023-03-14T14:17:53;4.18;;;3.75;;
6531;SDS011;3299;42.004;24.868;2023-03-14T14:20:23;6.03;;;4.28;;
6531;SDS011;3299;42.004;24.868;2023-03-14T14:22:59;15.30;;;7.15;;
6531;SDS011;3299;42.004;24.868;2023-03-14T14:25:28;4.38;;;3.97;;
6531;SDS011;3299;42.004;24.868;2023-03-14T14:27:54;5.40;;;4.47;;
6531;SDS011;3299;42.004;24.868;2023-03-14T14:32:49;8.25;;;3.67;;
6531;SDS011;3299;42.004;24.868;2023-03-14T14:35:22;5.30;;;3.63;;
6531;SDS011;3299;42.004;24.868;2023-03-14T14:37:55;7.53;;;4.00;;
6531;SDS011;3299;42.004;24.868;2023-03-14T14:40:26;7.05;;;3.70;;
6531;SDS011;3299;42.004;24.868;2023-03-14T14:42:53;5.00;;;4.40;;
6531;SDS011;3299;42.004;24.868;2023-03-14T14:45:21;5.45;;;3.90;;
6531;SDS011;3299;42.004;24.868;2023-03-14T14:47:50;4.00;;;3.60;;
6531;SDS011;3299;42.004;24.868;2023-03-14T14:50:27;4.22;;;3.85;;
6531;SDS011;3299;42.004;24.868;2023-03-14T14:53:00;3.20;;;2.85;;
6531;SDS011;3299;42.004;24.868;2023-03-14T14:55:34;4.50;;;2.90;;
6531;SDS011;3299;42.004;24.868;2023-03-14T14:58:18;3.50;;;3.20;;
6531;SDS011;3299;42.004;24.868;2023-03-14T15:00:53;7.70;;;3.17;;
6531;SDS011;3299;42.004;24.868;2023-03-14T15:03:29;3.70;;;3.22;;
6531;SDS011;3299;42.004;24.868;2023-03-14T15:05:57;3.50;;;2.55;;
6531;SDS011;3299;42.004;24.868;2023-03-14T15:08:24;3.35;;;2.72;;
6531;SDS011;3299;42.004;24.868;2023-03-14T15:10:51;2.20;;;2.00;;
6531;SDS011;3299;42.004;24.868;2023-03-14T15:13:17;4.03;;;2.08;;
6531;SDS011;3299;42.004;24.868;2023-03-14T15:15:43;3.17;;;2.38;;
6531;SDS011;3299;42.004;24.868;2023-03-14T15:18:15;6.57;;;2.58;;
6531;SDS011;3299;42.004;24.868;2023-03-14T15:20:43;2.47;;;2.28;;
6531;SDS011;3299;42.004;24.868;2023-03-14T15:23:10;2.33;;;2.10;;
6531;SDS011;3299;42.004;24.868;2023-03-14T15:25:36;5.68;;;2.60;;
6531;SDS011;3299;42.004;24.868;2023-03-14T15:28:05;4.63;;;2.50;;
6531;SDS011;3299;42.004;24.868;2023-03-14T15:30:39;2.17;;;2.00;;
6531;SDS011;3299;42.004;24.868;2023-03-14T15:33:05;2.97;;;2.17;;
6531;SDS011;3299;42.004;24.868;2023-03-14T15:35:33;4.07;;;2.20;;
6531;SDS011;3299;42.004;24.868;2023-03-14T15:38:00;5.07;;;2.30;;
6531;SDS011;3299;42.004;24.868;2023-03-14T15:40:25;2.25;;;2.00;;
6531;SDS011;3299;42.004;24.868;2023-03-14T15:42:51;3.40;;;2.75;;
6531;SDS011;3299;42.004;24.868;2023-03-14T15:45:16;3.83;;;2.90;;
6531;SDS011;3299;42.004;24.868;2023-03-14T15:47:42;4.38;;;3.15;;
6531;SDS011;3299;42.004;24.868;2023-03-14T15:50:08;6.03;;;4.85;;
6531;SDS011;3299;42.004;24.868;2023-03-14T15:52:34;4.57;;;3.10;;
6531;SDS011;3299;42.004;24.868;2023-03-14T15:55:00;9.20;;;5.88;;
6531;SDS011;3299;42.004;24.868;2023-03-14T15:57:25;6.40;;;3.90;;
6531;SDS011;3299;42.004;24.868;2023-03-14T15:59:51;2.53;;;2.33;;
6531;SDS011;3299;42.004;24.868;2023-03-14T16:02:16;3.78;;;1.88;;
6531;SDS011;3299;42.004;24.868;2023-03-14T16:04:41;3.90;;;2.50;;
6531;SDS011;3299;42.004;24.868;2023-03-14T16:07:07;3.63;;;2.10;;
6531;SDS011;3299;42.004;24.868;2023-03-14T16:09:32;3.03;;;2.38;;
6531;SDS011;3299;42.004;24.868;2023-03-14T16:11:58;2.60;;;2.10;;
6531;SDS011;3299;42.004;24.868;2023-03-14T16:14:23;2.67;;;2.30;;
6531;SDS011;3299;42.004;24.868;2023-03-14T16:16:48;1.75;;;1.63;;
6531;SDS011;3299;42.004;24.868;2023-03-14T16:19:14;1.85;;;1.75;;
6531;SDS011;3299;42.004;24.868;2023-03-14T16:21:40;2.90;;;2.08;;
6531;SDS011;3299;42.004;24.868;2023-03-14T16:24:08;3.80;;;2.00;;
6531;SDS011;3299;42.004;24.868;2023-03-14T16:26:33;1.98;;;1.80;;